sensor_id;sensor_type;location;lat;lon;timestamp;temperature;humidity
3356;DHT22;1691;52.486;13.374;2023-10-13T00:02:02;14.10;98.70
3356;DHT22;1691;52.486;13.374;2023-10-13T00:04:33;14.10;98.70
3356;DHT22;1691;52.486;13.374;2023-10-13T00:07:03;14.10;98.70
3356;DHT22;1691;52.486;13.374;2023-10-13T00:09:31;14.10;98.70
3356;DHT22;1691;52.486;13.374;2023-10-13T00:12:05;14.10;98.70
3356;DHT22;1691;52.486;13.374;2023-10-13T00:14:36;14.20;98.70
3356;DHT22;1691;52.486;13.374;2023-10-13T00:17:05;14.10;98.70
3356;DHT22;1691;52.486;13.374;2023-10-13T00:19:43;14.10;98.70
3356;DHT22;1691;52.486;13.374;2023-10-13T00:22:14;14.10;98.70
3356;DHT22;1691;52.486;13.374;2023-10-13T00:24:47;14.10;98.70
3356;DHT22;1691;52.486;13.374;2023-10-13T00:27:20;14.10;98.70
3356;DHT22;1691;52.486;13.374;2023-10-13T00:30:01;14.10;98.70
3356;DHT22;1691;52.486;13.374;2023-10-13T00:33:05;14.20;98.70
3356;DHT22;1691;52.486;13.374;2023-10-13T00:35:32;14.20;98.70
3356;DHT22;1691;52.486;13.374;2023-10-13T00:38:08;14.20;98.70
3356;DHT22;1691;52.486;13.374;2023-10-13T00:40:44;14.20;98.70
3356;DHT22;1691;52.486;13.374;2023-10-13T00:43:19;14.20;98.70
3356;DHT22;1691;52.486;13.374;2023-10-13T00:48:25;14.20;98.70
3356;DHT22;1691;52.486;13.374;2023-10-13T00:51:05;14.10;98.70
3356;DHT22;1691;52.486;13.374;2023-10-13T00:53:37;14.10;98.70
3356;DHT22;1691;52.486;13.374;2023-10-13T00:56:07;14.10;98.70
3356;DHT22;1691;52.486;13.374;2023-10-13T00:58:36;14.00;98.70
3356;DHT22;1691;52.486;13.374;2023-10-13T01:01:06;14.00;98.70
3356;DHT22;1691;52.486;13.374;2023-10-13T01:03:47;14.00;98.70
3356;DHT22;1691;52.486;13.374;2023-10-13T01:06:19;14.00;98.70
3356;DHT22;1691;52.486;13.374;2023-10-13T01:08:57;14.00;98.70
3356;DHT22;1691;52.486;13.374;2023-10-13T01:11:49;14.00;98.70
3356;DHT22;1691;52.486;13.374;2023-10-13T01:14:21;14.00;98.70
3356;DHT22;1691;52.486;13.374;2023-10-13T01:16:50;14.00;98.70
3356;DHT22;1691;52.486;13.374;2023-10-13T01:19:22;13.90;98.70
3356;DHT22;1691;52.486;13.374;2023-10-13T01:21:54;14.00;98.70
3356;DHT22;1691;52.486;13.374;2023-10-13T01:24:29;14.00;98.70
3356;DHT22;1691;52.486;13.374;2023-10-13T01:27:06;13.90;98.70
3356;DHT22;1691;52.486;13.374;2023-10-13T01:29:49;13.90;98.70
3356;DHT22;1691;52.486;13.374;2023-10-13T01:32:20;14.00;98.70
3356;DHT22;1691;52.486;13.374;2023-10-13T01:34:49;14.00;98.70
3356;DHT22;1691;52.486;13.374;2023-10-13T01:37:21;14.00;98.70
3356;DHT22;1691;52.486;13.374;2023-10-13T01:39:49;14.00;98.70
3356;DHT22;1691;52.486;13.374;2023-10-13T01:42:17;13.90;98.70
3356;DHT22;1691;52.486;13.374;2023-10-13T01:44:49;13.90;98.70
3356;DHT22;1691;52.486;13.374;2023-10-13T01:47:16;13.90;98.70
3356;DHT22;1691;52.486;13.374;2023-10-13T01:49:44;13.90;98.70
3356;DHT22;1691;52.486;13.374;2023-10-13T01:52:15;13.90;98.70
3356;DHT22;1691;52.486;13.374;2023-10-13T01:54:46;13.90;98.70
3356;DHT22;1691;52.486;13.374;2023-10-13T01:57:16;14.00;98.70
3356;DHT22;1691;52.486;13.374;2023-10-13T01:59:49;14.00;98.70
3356;DHT22;1691;52.486;13.374;2023-10-13T02:02:16;13.90;98.70
3356;DHT22;1691;52.486;13.374;2023-10-13T02:04:56;13.90;98.70
3356;DHT22;1691;52.486;13.374;2023-10-13T02:07:27;13.90;98.70
3356;DHT22;1691;52.486;13.374;2023-10-13T02:09:57;13.90;98.70
3356;DHT22;1691;52.486;13.374;2023-10-13T02:12:25;13.90;98.70
3356;DHT22;1691;52.486;13.374;2023-10-13T02:15:03;13.90;98.70
3356;DHT22;1691;52.486;13.374;2023-10-13T02:17:31;13.90;98.70
3356;DHT22;1691;52.486;13.374;2023-10-13T02:20:08;13.90;98.70
3356;DHT22;1691;52.486;13.374;2023-10-13T02:22:41;13.90;98.70
3356;DHT22;1691;52.486;13.374;2023-10-13T02:25:21;13.90;98.70
3356;DHT22;1691;52.486;13.374;2023-10-13T02:28:09;13.90;98.70
3356;DHT22;1691;52.486;13.374;2023-10-13T02:30:42;13.90;98.70
3356;DHT22;1691;52.486;13.374;2023-10-13T02:33:16;14.00;98.70
3356;DHT22;1691;52.486;13.374;2023-10-13T02:35:49;14.00;98.70
3356;DHT22;1691;52.486;13.374;2023-10-13T02:38:22;14.00;98.70
3356;DHT22;1691;52.486;13.374;2023-10-13T02:41:18;13.90;98.70
3356;DHT22;1691;52.486;13.374;2023-10-13T02:43:53;14.00;98.70
3356;DHT22;1691;52.486;13.374;2023-10-13T02:46:22;14.00;98.70
3356;DHT22;1691;52.486;13.374;2023-10-13T02:48:50;14.00;98.70
3356;DHT22;1691;52.486;13.374;2023-10-13T02:51:20;14.00;98.70
3356;DHT22;1691;52.486;13.374;2023-10-13T02:53:52;14.00;98.70
3356;DHT22;1691;52.486;13.374;2023-10-13T02:56:19;14.00;98.70
3356;DHT22;1691;52.486;13.374;2023-10-13T02:58:51;14.00;98.70
3356;DHT22;1691;52.486;13.374;2023-10-13T03:01:32;14.00;98.70
3356;DHT22;1691;52.486;13.374;2023-10-13T03:04:04;14.00;98.70
3356;DHT22;1691;52.486;13.374;2023-10-13T03:06:36;14.00;98.70
3356;DHT22;1691;52.486;13.374;2023-10-13T03:09:10;14.10;98.70
3356;DHT22;1691;52.486;13.374;2023-10-13T03:11:55;14.10;98.70
3356;DHT22;1691;52.486;13.374;2023-10-13T03:14:23;14.00;98.70
3356;DHT22;1691;52.486;13.374;2023-10-13T03:16:56;14.00;98.70
3356;DHT22;1691;52.486;13.374;2023-10-13T03:19:36;14.00;98.70
3356;DHT22;1691;52.486;13.374;2023-10-13T03:22:09;14.00;98.70
3356;DHT22;1691;52.486;13.374;2023-10-13T03:24:38;14.00;98.70
3356;DHT22;1691;52.486;13.374;2023-10-13T03:27:13;14.00;98.70
3356;DHT22;1691;52.486;13.374;2023-10-13T03:29:49;14.00;98.70
3356;DHT22;1691;52.486;13.374;2023-10-13T03:32:22;14.10;98.70
3356;DHT22;1691;52.486;13.374;2023-10-13T03:34:53;14.10;98.70
3356;DHT22;1691;52.486;13.374;2023-10-13T03:37:27;14.10;98.70
3356;DHT22;1691;52.486;13.374;2023-10-13T03:40:06;14.10;98.70
3356;DHT22;1691;52.486;13.374;2023-10-13T03:42:50;14.10;98.70
3356;DHT22;1691;52.486;13.374;2023-10-13T03:45:45;14.20;98.70
3356;DHT22;1691;52.486;13.374;2023-10-13T03:48:19;14.20;98.70
3356;DHT22;1691;52.486;13.374;2023-10-13T03:51:00;14.20;98.70
3356;DHT22;1691;52.486;13.374;2023-10-13T03:53:36;14.20;98.70
3356;DHT22;1691;52.486;13.374;2023-10-13T03:56:16;14.20;98.70
3356;DHT22;1691;52.486;13.374;2023-10-13T03:58:59;14.20;98.70
3356;DHT22;1691;52.486;13.374;2023-10-13T04:01:52;14.30;98.70
3356;DHT22;1691;52.486;13.374;2023-10-13T04:04:19;14.20;98.70
3356;DHT22;1691;52.486;13.374;2023-10-13T04:07:25;14.20;98.70
3356;DHT22;1691;52.486;13.374;2023-10-13T04:09:52;14.20;98.70
3356;DHT22;1691;52.486;13.374;2023-10-13T04:12:37;14.20;98.70
3356;DHT22;1691;52.486;13.374;2023-10-13T04:15:22;14.20;98.70
3356;DHT22;1691;52.486;13.374;2023-10-13T04:17:50;14.20;98.70
3356;DHT22;1691;52.486;13.374;2023-10-13T04:20:17;14.20;98.70
3356;DHT22;1691;52.486;13.374;2023-10-13T04:22:56;14.20;98.70
3356;DHT22;1691;52.486;13.374;2023-10-13T04:25:27;14.30;98.70
3356;DHT22;1691;52.486;13.374;2023-10-13T04:28:12;14.30;98.70
3356;DHT22;1691;52.486;13.374;2023-10-13T04:31:00;14.30;98.70
3356;DHT22;1691;52.486;13.374;2023-10-13T04:33:39;14.30;98.70
3356;DHT22;1691;52.486;13.374;2023-10-13T04:36:29;14.30;98.70
3356;DHT22;1691;52.486;13.374;2023-10-13T04:39:00;14.30;98.70
3356;DHT22;1691;52.486;13.374;2023-10-13T04:41:29;14.30;98.70
3356;DHT22;1691;52.486;13.374;2023-10-13T04:44:12;14.30;98.70
3356;DHT22;1691;52.486;13.374;2023-10-13T04:46:59;14.30;98.70
3356;DHT22;1691;52.486;13.374;2023-10-13T04:49:28;14.30;98.70
3356;DHT22;1691;52.486;13.374;2023-10-13T04:52:03;14.30;98.70
3356;DHT22;1691;52.486;13.374;2023-10-13T04:54:38;14.30;98.70
3356;DHT22;1691;52.486;13.374;2023-10-13T04:57:12;14.30;98.70
3356;DHT22;1691;52.486;13.374;2023-10-13T05:00:04;14.30;98.70
3356;DHT22;1691;52.486;13.374;2023-10-13T05:02:38;14.30;98.70
3356;DHT22;1691;52.486;13.374;2023-10-13T05:05:10;14.30;98.70
3356;DHT22;1691;52.486;13.374;2023-10-13T05:07:45;14.40;98.70
3356;DHT22;1691;52.486;13.374;2023-10-13T05:10:32;14.40;98.70
3356;DHT22;1691;52.486;13.374;2023-10-13T05:13:19;14.40;98.70
3356;DHT22;1691;52.486;13.374;2023-10-13T05:16:05;14.50;98.70
3356;DHT22;1691;52.486;13.374;2023-10-13T05:18:51;14.50;98.70
3356;DHT22;1691;52.486;13.374;2023-10-13T05:21:37;14.50;98.70
3356;DHT22;1691;52.486;13.374;2023-10-13T05:24:23;14.60;98.70
3356;DHT22;1691;52.486;13.374;2023-10-13T05:27:09;14.60;98.70
3356;DHT22;1691;52.486;13.374;2023-10-13T05:29:54;14.70;98.70
3356;DHT22;1691;52.486;13.374;2023-10-13T05:32:40;14.70;98.70
3356;DHT22;1691;52.486;13.374;2023-10-13T05:35:26;14.70;98.70
3356;DHT22;1691;52.486;13.374;2023-10-13T05:38:11;14.70;98.70
3356;DHT22;1691;52.486;13.374;2023-10-13T05:41:01;14.70;98.70
3356;DHT22;1691;52.486;13.374;2023-10-13T05:43:51;14.70;98.70
3356;DHT22;1691;52.486;13.374;2023-10-13T05:46:37;14.80;98.70
3356;DHT22;1691;52.486;13.374;2023-10-13T05:49:06;14.80;98.70
3356;DHT22;1691;52.486;13.374;2023-10-13T05:51:44;14.80;98.70
3356;DHT22;1691;52.486;13.374;2023-10-13T05:54:25;14.80;98.70
3356;DHT22;1691;52.486;13.374;2023-10-13T05:57:10;14.80;98.70
3356;DHT22;1691;52.486;13.374;2023-10-13T06:00:06;14.80;98.70
3356;DHT22;1691;52.486;13.374;2023-10-13T06:02:52;14.90;98.70
3356;DHT22;1691;52.486;13.374;2023-10-13T06:05:38;14.90;98.70
3356;DHT22;1691;52.486;13.374;2023-10-13T06:08:24;15.00;98.70
3356;DHT22;1691;52.486;13.374;2023-10-13T06:11:09;15.00;98.70
3356;DHT22;1691;52.486;13.374;2023-10-13T06:13:55;15.10;98.70
3356;DHT22;1691;52.486;13.374;2023-10-13T06:16:40;15.20;98.70
3356;DHT22;1691;52.486;13.374;2023-10-13T06:19:26;15.20;98.70
3356;DHT22;1691;52.486;13.374;2023-10-13T06:22:12;15.40;98.70
3356;DHT22;1691;52.486;13.374;2023-10-13T06:24:58;15.70;98.70
3356;DHT22;1691;52.486;13.374;2023-10-13T06:27:43;16.00;98.70
3356;DHT22;1691;52.486;13.374;2023-10-13T06:30:31;16.50;98.70
3356;DHT22;1691;52.486;13.374;2023-10-13T06:32:59;17.00;98.70
3356;DHT22;1691;52.486;13.374;2023-10-13T06:35:28;17.30;98.70
3356;DHT22;1691;52.486;13.374;2023-10-13T06:37:56;17.30;98.70
3356;DHT22;1691;52.486;13.374;2023-10-13T06:40:27;17.30;98.70
3356;DHT22;1691;52.486;13.374;2023-10-13T06:43:01;17.10;98.70
3356;DHT22;1691;52.486;13.374;2023-10-13T06:45:44;17.00;98.70
3356;DHT22;1691;52.486;13.374;2023-10-13T06:48:17;17.10;98.70
3356;DHT22;1691;52.486;13.374;2023-10-13T06:50:49;17.40;98.70
3356;DHT22;1691;52.486;13.374;2023-10-13T06:53:19;17.90;98.70
3356;DHT22;1691;52.486;13.374;2023-10-13T06:55:46;18.30;98.70
3356;DHT22;1691;52.486;13.374;2023-10-13T06:58:14;18.60;98.70
3356;DHT22;1691;52.486;13.374;2023-10-13T07:00:44;19.00;98.70
3356;DHT22;1691;52.486;13.374;2023-10-13T07:03:25;19.50;98.70
3356;DHT22;1691;52.486;13.374;2023-10-13T07:05:52;20.20;98.70
3356;DHT22;1691;52.486;13.374;2023-10-13T07:08:21;20.90;98.70
3356;DHT22;1691;52.486;13.374;2023-10-13T07:10:54;21.40;98.70
3356;DHT22;1691;52.486;13.374;2023-10-13T07:13:44;21.70;98.70
3356;DHT22;1691;52.486;13.374;2023-10-13T07:16:17;21.90;97.70
3356;DHT22;1691;52.486;13.374;2023-10-13T07:18:56;21.70;96.90
3356;DHT22;1691;52.486;13.374;2023-10-13T07:21:33;21.40;96.40
3356;DHT22;1691;52.486;13.374;2023-10-13T07:24:00;20.90;96.20
3356;DHT22;1691;52.486;13.374;2023-10-13T07:26:35;20.50;96.30
3356;DHT22;1691;52.486;13.374;2023-10-13T07:29:13;20.10;96.70
3356;DHT22;1691;52.486;13.374;2023-10-13T07:31:46;19.70;96.90
3356;DHT22;1691;52.486;13.374;2023-10-13T07:34:33;19.50;97.20
3356;DHT22;1691;52.486;13.374;2023-10-13T07:37:13;19.20;97.50
3356;DHT22;1691;52.486;13.374;2023-10-13T07:40:03;19.10;97.80
3356;DHT22;1691;52.486;13.374;2023-10-13T07:43:00;19.00;98.00
3356;DHT22;1691;52.486;13.374;2023-10-13T07:46:32;19.00;98.10
3356;DHT22;1691;52.486;13.374;2023-10-13T07:56:18;18.90;98.30
3356;DHT22;1691;52.486;13.374;2023-10-13T07:59:26;18.90;98.40
3356;DHT22;1691;52.486;13.374;2023-10-13T08:02:08;18.80;98.30
3356;DHT22;1691;52.486;13.374;2023-10-13T08:05:09;18.80;98.30
3356;DHT22;1691;52.486;13.374;2023-10-13T08:08:22;18.70;98.50
3356;DHT22;1691;52.486;13.374;2023-10-13T08:12:42;18.60;98.60
3356;DHT22;1691;52.486;13.374;2023-10-13T08:15:37;18.50;98.70
3356;DHT22;1691;52.486;13.374;2023-10-13T08:19:24;18.50;98.70
3356;DHT22;1691;52.486;13.374;2023-10-13T08:23:03;18.50;98.70
3356;DHT22;1691;52.486;13.374;2023-10-13T08:35:24;19.10;98.70
3356;DHT22;1691;52.486;13.374;2023-10-13T08:39:30;19.40;98.70
3356;DHT22;1691;52.486;13.374;2023-10-13T08:43:42;19.50;98.40
3356;DHT22;1691;52.486;13.374;2023-10-13T08:51:38;19.40;98.20
3356;DHT22;1691;52.486;13.374;2023-10-13T08:55:42;19.30;98.40
3356;DHT22;1691;52.486;13.374;2023-10-13T09:11:16;19.20;98.60
3356;DHT22;1691;52.486;13.374;2023-10-13T09:23:07;19.30;98.50
3356;DHT22;1691;52.486;13.374;2023-10-13T09:38:37;19.00;98.60
3356;DHT22;1691;52.486;13.374;2023-10-13T09:42:25;18.90;98.70
3356;DHT22;1691;52.486;13.374;2023-10-13T09:50:03;18.70;98.70
3356;DHT22;1691;52.486;13.374;2023-10-13T10:01:41;18.50;98.70
3356;DHT22;1691;52.486;13.374;2023-10-13T10:05:49;18.50;98.70
3356;DHT22;1691;52.486;13.374;2023-10-13T10:09:37;18.50;98.70
3356;DHT22;1691;52.486;13.374;2023-10-13T10:21:52;18.70;98.70
3356;DHT22;1691;52.486;13.374;2023-10-13T10:25:38;18.80;98.70
3356;DHT22;1691;52.486;13.374;2023-10-13T10:30:24;18.90;98.70
3356;DHT22;1691;52.486;13.374;2023-10-13T10:33:54;18.90;98.70
3356;DHT22;1691;52.486;13.374;2023-10-13T10:37:20;18.80;98.70
3356;DHT22;1691;52.486;13.374;2023-10-13T10:44:27;18.70;98.70
3356;DHT22;1691;52.486;13.374;2023-10-13T10:52:55;18.70;98.70
3356;DHT22;1691;52.486;13.374;2023-10-13T11:04:15;18.70;98.70
3356;DHT22;1691;52.486;13.374;2023-10-13T11:06:56;18.70;98.70
3356;DHT22;1691;52.486;13.374;2023-10-13T11:09:33;18.70;98.70
3356;DHT22;1691;52.486;13.374;2023-10-13T11:12:17;18.70;98.70
3356;DHT22;1691;52.486;13.374;2023-10-13T11:15:41;18.70;98.70
3356;DHT22;1691;52.486;13.374;2023-10-13T11:18:32;18.80;98.70
3356;DHT22;1691;52.486;13.374;2023-10-13T11:21:15;18.90;98.70
3356;DHT22;1691;52.486;13.374;2023-10-13T11:24:24;19.00;98.70
3356;DHT22;1691;52.486;13.374;2023-10-13T11:31:28;19.10;98.70
3356;DHT22;1691;52.486;13.374;2023-10-13T11:39:04;19.20;98.70
3356;DHT22;1691;52.486;13.374;2023-10-13T11:43:05;19.20;98.70
3356;DHT22;1691;52.486;13.374;2023-10-13T11:54:34;19.30;98.70
3356;DHT22;1691;52.486;13.374;2023-10-13T11:58:07;19.40;98.70
3356;DHT22;1691;52.486;13.374;2023-10-13T12:01:27;19.50;98.70
3356;DHT22;1691;52.486;13.374;2023-10-13T12:05:11;19.60;98.70
3356;DHT22;1691;52.486;13.374;2023-10-13T12:20:24;20.10;98.70
3356;DHT22;1691;52.486;13.374;2023-10-13T12:22:59;20.20;98.70
3356;DHT22;1691;52.486;13.374;2023-10-13T12:26:20;20.30;98.70
3356;DHT22;1691;52.486;13.374;2023-10-13T12:29:26;20.30;98.70
3356;DHT22;1691;52.486;13.374;2023-10-13T12:32:22;20.40;98.70
3356;DHT22;1691;52.486;13.374;2023-10-13T12:35:04;20.50;98.70
3356;DHT22;1691;52.486;13.374;2023-10-13T12:41:14;20.60;98.70
3356;DHT22;1691;52.486;13.374;2023-10-13T12:44:24;20.70;98.70
3356;DHT22;1691;52.486;13.374;2023-10-13T12:47:27;20.80;98.70
3356;DHT22;1691;52.486;13.374;2023-10-13T12:50:22;20.80;98.70
3356;DHT22;1691;52.486;13.374;2023-10-13T12:53:40;20.90;98.70
3356;DHT22;1691;52.486;13.374;2023-10-13T12:56:27;21.00;98.70
3356;DHT22;1691;52.486;13.374;2023-10-13T13:00:03;21.10;98.50
3356;DHT22;1691;52.486;13.374;2023-10-13T13:03:26;21.10;98.10
3356;DHT22;1691;52.486;13.374;2023-10-13T13:06:45;21.20;97.90
3356;DHT22;1691;52.486;13.374;2023-10-13T13:09:37;21.30;97.70
3356;DHT22;1691;52.486;13.374;2023-10-13T13:12:30;21.30;97.60
3356;DHT22;1691;52.486;13.374;2023-10-13T13:15:11;21.40;97.20
3356;DHT22;1691;52.486;13.374;2023-10-13T13:17:50;21.40;97.20
3356;DHT22;1691;52.486;13.374;2023-10-13T13:20:27;21.50;97.10
3356;DHT22;1691;52.486;13.374;2023-10-13T13:23:13;21.60;96.70
3356;DHT22;1691;52.486;13.374;2023-10-13T13:26:04;21.60;96.50
3356;DHT22;1691;52.486;13.374;2023-10-13T13:29:23;21.70;96.20
3356;DHT22;1691;52.486;13.374;2023-10-13T13:32:33;21.90;96.10
3356;DHT22;1691;52.486;13.374;2023-10-13T13:36:04;21.90;95.70
3356;DHT22;1691;52.486;13.374;2023-10-13T13:39:02;22.00;95.60
3356;DHT22;1691;52.486;13.374;2023-10-13T13:49:47;22.10;94.80
3356;DHT22;1691;52.486;13.374;2023-10-13T13:52:56;22.20;94.60
3356;DHT22;1691;52.486;13.374;2023-10-13T13:56:22;22.20;94.30
3356;DHT22;1691;52.486;13.374;2023-10-13T13:59:23;22.20;94.10
3356;DHT22;1691;52.486;13.374;2023-10-13T14:03:29;22.30;94.00
3356;DHT22;1691;52.486;13.374;2023-10-13T14:06:41;22.40;93.70
3356;DHT22;1691;52.486;13.374;2023-10-13T14:09:40;22.40;93.60
3356;DHT22;1691;52.486;13.374;2023-10-13T14:13:12;22.50;93.40
3356;DHT22;1691;52.486;13.374;2023-10-13T14:23:51;22.60;92.70
3356;DHT22;1691;52.486;13.374;2023-10-13T14:27:43;22.60;92.60
3356;DHT22;1691;52.486;13.374;2023-10-13T14:34:15;22.40;92.10
3356;DHT22;1691;52.486;13.374;2023-10-13T14:37:28;22.40;92.10
3356;DHT22;1691;52.486;13.374;2023-10-13T14:40:59;22.40;92.00
3356;DHT22;1691;52.486;13.374;2023-10-13T14:44:49;22.40;91.80
3356;DHT22;1691;52.486;13.374;2023-10-13T14:48:51;22.40;91.80
3356;DHT22;1691;52.486;13.374;2023-10-13T14:51:41;22.30;91.60
3356;DHT22;1691;52.486;13.374;2023-10-13T14:54:58;22.30;91.70
3356;DHT22;1691;52.486;13.374;2023-10-13T14:58:05;22.20;91.70
3356;DHT22;1691;52.486;13.374;2023-10-13T15:04:42;22.10;91.60
3356;DHT22;1691;52.486;13.374;2023-10-13T15:11:33;22.10;91.40
3356;DHT22;1691;52.486;13.374;2023-10-13T15:14:31;22.10;91.60
3356;DHT22;1691;52.486;13.374;2023-10-13T15:21:04;22.10;91.20
3356;DHT22;1691;52.486;13.374;2023-10-13T15:23:56;22.10;91.20
3356;DHT22;1691;52.486;13.374;2023-10-13T15:27:33;22.10;90.90
3356;DHT22;1691;52.486;13.374;2023-10-13T15:30:42;22.10;90.90
3356;DHT22;1691;52.486;13.374;2023-10-13T15:34:31;22.10;90.80
3356;DHT22;1691;52.486;13.374;2023-10-13T15:37:05;22.00;90.70
3356;DHT22;1691;52.486;13.374;2023-10-13T15:40:26;22.00;90.90
3356;DHT22;1691;52.486;13.374;2023-10-13T15:44:28;21.90;90.90
3356;DHT22;1691;52.486;13.374;2023-10-13T15:51:22;21.80;90.90
3356;DHT22;1691;52.486;13.374;2023-10-13T15:58:00;21.70;91.10
3356;DHT22;1691;52.486;13.374;2023-10-13T16:00:56;21.70;91.30
3356;DHT22;1691;52.486;13.374;2023-10-13T16:03:34;21.60;91.30
3356;DHT22;1691;52.486;13.374;2023-10-13T16:07:02;21.60;91.40
3356;DHT22;1691;52.486;13.374;2023-10-13T16:10:40;21.50;91.40
3356;DHT22;1691;52.486;13.374;2023-10-13T16:13:47;21.50;91.40
3356;DHT22;1691;52.486;13.374;2023-10-13T16:17:07;21.40;91.40
3356;DHT22;1691;52.486;13.374;2023-10-13T16:19:55;21.40;91.50
3356;DHT22;1691;52.486;13.374;2023-10-13T16:22:39;21.40;91.40
3356;DHT22;1691;52.486;13.374;2023-10-13T16:29:13;21.30;91.10
3356;DHT22;1691;52.486;13.374;2023-10-13T16:33:20;21.30;91.20
3356;DHT22;1691;52.486;13.374;2023-10-13T16:37:02;21.20;91.20
3356;DHT22;1691;52.486;13.374;2023-10-13T16:40:22;21.20;91.20
3356;DHT22;1691;52.486;13.374;2023-10-13T16:43:40;21.20;91.20
3356;DHT22;1691;52.486;13.374;2023-10-13T16:50:58;21.10;91.30
3356;DHT22;1691;52.486;13.374;2023-10-13T17:10:49;20.80;91.30
3356;DHT22;1691;52.486;13.374;2023-10-13T17:14:43;20.80;91.30
3356;DHT22;1691;52.486;13.374;2023-10-13T17:18:29;20.80;91.20
3356;DHT22;1691;52.486;13.374;2023-10-13T17:21:21;20.90;91.10
3356;DHT22;1691;52.486;13.374;2023-10-13T17:24:30;20.90;90.80
3356;DHT22;1691;52.486;13.374;2023-10-13T17:27:41;21.00;90.50
3356;DHT22;1691;52.486;13.374;2023-10-13T17:31:26;21.00;90.30
3356;DHT22;1691;52.486;13.374;2023-10-13T17:35:08;21.10;90.20
3356;DHT22;1691;52.486;13.374;2023-10-13T17:38:38;21.10;89.30
3356;DHT22;1691;52.486;13.374;2023-10-13T17:45:43;21.20;89.00
3356;DHT22;1691;52.486;13.374;2023-10-13T17:48:46;21.30;88.20
3356;DHT22;1691;52.486;13.374;2023-10-13T17:51:16;21.30;88.20
3356;DHT22;1691;52.486;13.374;2023-10-13T17:53:48;21.30;87.90
3356;DHT22;1691;52.486;13.374;2023-10-13T18:00:12;21.40;86.90
3356;DHT22;1691;52.486;13.374;2023-10-13T18:03:20;21.40;86.70
3356;DHT22;1691;52.486;13.374;2023-10-13T18:13:16;21.40;85.80
3356;DHT22;1691;52.486;13.374;2023-10-13T18:24:39;21.30;85.60
3356;DHT22;1691;52.486;13.374;2023-10-13T18:32:01;21.30;85.40
3356;DHT22;1691;52.486;13.374;2023-10-13T18:35:15;21.30;85.60
3356;DHT22;1691;52.486;13.374;2023-10-13T18:38:59;21.30;85.60
3356;DHT22;1691;52.486;13.374;2023-10-13T18:42:59;21.30;84.90
3356;DHT22;1691;52.486;13.374;2023-10-13T18:50:10;21.30;84.70
3356;DHT22;1691;52.486;13.374;2023-10-13T18:53:58;21.30;84.90
3356;DHT22;1691;52.486;13.374;2023-10-13T19:00:24;21.40;84.10
3356;DHT22;1691;52.486;13.374;2023-10-13T19:03:48;21.40;83.90
3356;DHT22;1691;52.486;13.374;2023-10-13T19:06:50;21.50;83.40
3356;DHT22;1691;52.486;13.374;2023-10-13T19:10:55;21.50;83.40
3356;DHT22;1691;52.486;13.374;2023-10-13T19:14:06;21.50;82.60
3356;DHT22;1691;52.486;13.374;2023-10-13T19:16:58;21.50;82.40
3356;DHT22;1691;52.486;13.374;2023-10-13T19:19:46;21.50;81.90
3356;DHT22;1691;52.486;13.374;2023-10-13T19:22:53;21.50;81.50
3356;DHT22;1691;52.486;13.374;2023-10-13T19:25:47;21.50;81.10
3356;DHT22;1691;52.486;13.374;2023-10-13T19:29:13;21.50;81.50
3356;DHT22;1691;52.486;13.374;2023-10-13T19:36:31;21.50;80.80
3356;DHT22;1691;52.486;13.374;2023-10-13T19:41:00;21.50;81.10
3356;DHT22;1691;52.486;13.374;2023-10-13T19:44:33;21.50;80.60
3356;DHT22;1691;52.486;13.374;2023-10-13T19:48:34;21.50;80.80
3356;DHT22;1691;52.486;13.374;2023-10-13T20:03:21;21.40;80.40
3356;DHT22;1691;52.486;13.374;2023-10-13T20:11:00;21.30;80.40
3356;DHT22;1691;52.486;13.374;2023-10-13T20:14:46;21.30;80.80
3356;DHT22;1691;52.486;13.374;2023-10-13T20:18:45;21.30;80.80
3356;DHT22;1691;52.486;13.374;2023-10-13T20:26:55;21.40;80.00
3356;DHT22;1691;52.486;13.374;2023-10-13T20:30:42;21.30;80.00
3356;DHT22;1691;52.486;13.374;2023-10-13T20:38:22;21.40;79.10
3356;DHT22;1691;52.486;13.374;2023-10-13T20:49:32;21.40;78.50
3356;DHT22;1691;52.486;13.374;2023-10-13T21:01:29;21.30;78.50
3356;DHT22;1691;52.486;13.374;2023-10-13T21:20:03;21.30;78.30
3356;DHT22;1691;52.486;13.374;2023-10-13T21:23:27;21.20;78.70
3356;DHT22;1691;52.486;13.374;2023-10-13T21:31:59;21.20;78.70
3356;DHT22;1691;52.486;13.374;2023-10-13T21:39:50;21.10;78.70
3356;DHT22;1691;52.486;13.374;2023-10-13T21:43:20;21.00;79.10
3356;DHT22;1691;52.486;13.374;2023-10-13T21:54:54;20.90;79.70
3356;DHT22;1691;52.486;13.374;2023-10-13T22:19:32;20.70;80.40
3356;DHT22;1691;52.486;13.374;2023-10-13T22:26:59;20.70;80.40
3356;DHT22;1691;52.486;13.374;2023-10-13T22:30:32;20.60;80.60
3356;DHT22;1691;52.486;13.374;2023-10-13T22:42:35;20.60;80.00
3356;DHT22;1691;52.486;13.374;2023-10-13T22:46:58;20.60;80.00
3356;DHT22;1691;52.486;13.374;2023-10-13T22:50:54;20.60;80.00
3356;DHT22;1691;52.486;13.374;2023-10-13T22:58:56;20.70;79.50
3356;DHT22;1691;52.486;13.374;2023-10-13T23:07:25;20.70;79.10
3356;DHT22;1691;52.486;13.374;2023-10-13T23:15:38;20.70;79.10
3356;DHT22;1691;52.486;13.374;2023-10-13T23:19:10;20.70;79.10
3356;DHT22;1691;52.486;13.374;2023-10-13T23:58:07;20.30;82.80
